»·PEaware :: WAT202 KSMF-KBOI

WAT202 :: KSMF-KBOI

FLIGHT INFORMATION

Flight Status: Arrived
Operator: Unknown
More flights by this operator :: More flights under this callsign
Pilot: Nick L. (7253)
Aircraft: AIRBUS A319
(A319)
More flights by this aircraft type
Origin: KSMF Sacramento Intl
United States
Destination: KBOI Boise Air Terminal/Gowen
United States
More flights between these airports :: More routes between these airports
Route: SCTWN2 MACUS PRNCS SADYL3
File this flight plan on PilotEdge
Remarks:
Altitude:
(Current/Filed)
37,000ft
Speed:
(Current/Filed)
447kts
Departed: 16-Apr-20 11:59 AM
Arrived: 16-Apr-20 01:07 PM
Distance/Time
Traveled:
379nm/1:08
Distance/Time
To Go:
Arrived

Flight Plot

Page will automatically refresh every two minutes.


Map Options




Map Legend


Flown Route
Filed Route
Departure Airport
Arrival Airport
Navaid (VOR, NDB)
Fix

Horizontal Profiles

Position Reports

Time Latitude Longitude Heading Altitude Ground
Speed
16-Apr-20 11:26 38.680477 -121.597930 270 34ft 0kts
16-Apr-20 11:27 38.680477 -121.597930 270 34ft 0kts
16-Apr-20 11:28 38.680477 -121.597930 270 34ft 0kts
16-Apr-20 11:29 38.680477 -121.597930 270 34ft 0kts
16-Apr-20 11:30 38.680477 -121.597930 270 34ft 0kts
16-Apr-20 11:31 38.680477 -121.597930 270 34ft 0kts
16-Apr-20 11:32 38.680477 -121.597930 270 34ft 0kts
16-Apr-20 11:33 38.680477 -121.597930 270 34ft 0kts
16-Apr-20 11:34 38.680477 -121.597930 270 34ft 0kts
16-Apr-20 11:35 38.680477 -121.597930 270 34ft 0kts
16-Apr-20 11:36 38.680477 -121.597930 270 34ft 0kts
16-Apr-20 11:37 38.680477 -121.597930 270 34ft 0kts
16-Apr-20 11:38 38.680477 -121.597930 270 34ft 0kts
16-Apr-20 11:38 38.680477 -121.597930 270 34ft 0kts
16-Apr-20 11:40 38.680477 -121.597930 270 34ft 0kts
16-Apr-20 11:41 38.680477 -121.597930 270 34ft 0kts
16-Apr-20 11:41 38.680477 -121.597930 270 34ft 0kts
16-Apr-20 11:43 38.680477 -121.597930 270 34ft 0kts
16-Apr-20 11:44 38.680477 -121.597930 270 34ft 0kts
16-Apr-20 11:44 38.680477 -121.597930 270 34ft 0kts
16-Apr-20 11:45 38.680477 -121.597930 270 34ft 0kts
16-Apr-20 11:47 38.680477 -121.597930 270 34ft 0kts
16-Apr-20 11:47 38.680477 -121.597937 269 34ft 0kts
16-Apr-20 11:48 38.681711 -121.598736 300 34ft 9kts
16-Apr-20 11:49 38.686262 -121.598824 0 34ft 20kts
16-Apr-20 11:50 38.692780 -121.598699 0 34ft 30kts
16-Apr-20 11:51 38.702539 -121.598573 0 34ft 35kts
16-Apr-20 11:52 38.707170 -121.598832 294 34ft 0kts
16-Apr-20 11:53 38.707194 -121.599142 270 34ft 1kts
16-Apr-20 11:54 38.707197 -121.599637 270 34ft 0kts
16-Apr-20 11:55 38.707197 -121.599638 270 34ft 0kts
16-Apr-20 11:56 38.707197 -121.599638 270 34ft 0kts
16-Apr-20 11:57 38.707203 -121.600526 270 34ft 15kts
16-Apr-20 11:58 38.685083 -121.601626 179 282ft 175kts
16-Apr-20 11:59 38.659908 -121.558799 105 2939ft 196kts
16-Apr-20 12:00 38.638478 -121.479953 109 5275ft 271kts
16-Apr-20 12:01 38.632090 -121.381961 87 8851ft 289kts
16-Apr-20 12:02 38.634957 -121.275800 88 11268ft 335kts
16-Apr-20 12:03 38.638055 -121.151595 88 14181ft 359kts
16-Apr-20 12:04 38.641174 -121.020474 87 16913ft 376kts
16-Apr-20 12:05 38.644290 -120.883939 87 19336ft 392kts
16-Apr-20 12:06 38.647759 -120.741817 82 21537ft 406kts
16-Apr-20 12:07 38.705005 -120.619508 46 23449ft 414kts
16-Apr-20 12:08 38.778533 -120.509915 46 25783ft 409kts
16-Apr-20 12:09 38.851704 -120.399603 46 27291ft 420kts
16-Apr-20 12:10 38.924228 -120.289401 47 28657ft 429kts
16-Apr-20 12:11 38.999928 -120.173981 46 30006ft 434kts
16-Apr-20 12:12 39.076283 -120.057488 45 31011ft 445kts
16-Apr-20 12:13 39.138936 -119.961993 45 31418ft 459kts
16-Apr-20 12:14 39.228599 -119.824562 45 32551ft 462kts
16-Apr-20 12:15 39.310576 -119.698081 45 33672ft 459kts
16-Apr-20 12:16 39.391975 -119.571985 45 34608ft 457kts
16-Apr-20 12:17 39.473217 -119.445623 45 35452ft 455kts
16-Apr-20 12:18 39.553514 -119.320146 46 36124ft 454kts
16-Apr-20 12:19 39.633693 -119.194028 46 36650ft 453kts
16-Apr-20 12:20 39.714017 -119.067603 46 37110ft 453kts
16-Apr-20 12:21 39.794428 -118.940545 45 37179ft 458kts
16-Apr-20 12:22 39.881245 -118.824522 28 37185ft 453kts
16-Apr-20 12:23 39.991937 -118.758811 8 37191ft 440kts
16-Apr-20 12:24 40.105151 -118.717413 9 37189ft 440kts
16-Apr-20 12:25 40.224220 -118.673265 9 37189ft 440kts
16-Apr-20 12:26 40.341480 -118.629412 9 37189ft 440kts
16-Apr-20 12:27 40.458532 -118.585446 9 37189ft 440kts
16-Apr-20 12:28 40.575510 -118.541366 9 37188ft 440kts
16-Apr-20 12:29 40.691394 -118.497537 9 37191ft 440kts
16-Apr-20 12:30 40.808963 -118.452900 9 37194ft 439kts
16-Apr-20 12:31 40.926845 -118.407973 9 37201ft 440kts
16-Apr-20 12:32 41.043283 -118.363383 9 37210ft 428kts
16-Apr-20 12:33 41.151804 -118.321505 10 37208ft 413kts
16-Apr-20 12:34 41.261893 -118.278931 10 37209ft 413kts
16-Apr-20 12:35 41.372219 -118.236263 10 37208ft 413kts
16-Apr-20 12:36 41.481928 -118.193801 10 37208ft 413kts
16-Apr-20 12:37 41.592289 -118.150470 10 37208ft 413kts
16-Apr-20 12:38 41.701079 -118.107946 10 37217ft 413kts
16-Apr-20 12:39 41.810655 -118.065042 10 37241ft 413kts
16-Apr-20 12:40 41.921316 -118.021564 10 37251ft 412kts
16-Apr-20 12:41 42.031517 -117.978121 10 37252ft 413kts
16-Apr-20 12:42 42.140473 -117.935041 10 37249ft 412kts
16-Apr-20 12:43 42.251013 -117.891244 10 35762ft 416kts
16-Apr-20 12:44 42.361135 -117.847405 11 32784ft 416kts
16-Apr-20 12:45 42.463749 -117.772749 35 29811ft 429kts
16-Apr-20 12:46 42.540142 -117.653698 44 27728ft 416kts
16-Apr-20 12:47 42.611820 -117.534780 45 25856ft 397kts
16-Apr-20 12:48 42.680571 -117.420341 45 24000ft 383kts
16-Apr-20 12:49 42.746725 -117.309636 46 22178ft 370kts
16-Apr-20 12:50 42.810545 -117.201854 47 20374ft 359kts
16-Apr-20 12:51 42.872384 -117.096667 47 18602ft 349kts
16-Apr-20 12:52 42.932451 -116.994369 48 16855ft 341kts
16-Apr-20 12:53 42.989522 -116.896830 50 15484ft 316kts
16-Apr-20 12:54 43.042401 -116.806092 50 14223ft 295kts
16-Apr-20 12:55 43.091534 -116.722881 50 12981ft 282kts
16-Apr-20 12:56 43.140135 -116.640914 50 11743ft 274kts
16-Apr-20 12:57 43.190946 -116.567116 25 10545ft 267kts
16-Apr-20 12:58 43.261407 -116.537834 16 9366ft 262kts
16-Apr-20 12:59 43.330388 -116.510316 16 8190ft 257kts
16-Apr-20 13:00 43.398043 -116.483230 15 7032ft 253kts
16-Apr-20 13:01 43.464771 -116.456442 15 6066ft 237kts
16-Apr-20 13:02 43.520310 -116.424105 32 5581ft 217kts
16-Apr-20 13:03 43.568768 -116.378233 32 5056ft 206kts
16-Apr-20 13:04 43.593514 -116.317960 96 4086ft 172kts
16-Apr-20 13:05 43.576676 -116.263419 114 3257ft 148kts
16-Apr-20 13:06 43.563246 -116.222708 114 2880ft 32kts
16-Apr-20 13:07 43.560839 -116.216912 182 2880ft 17kts
16-Apr-20 13:08 43.559391 -116.219032 259 2880ft 13kts

Navigation Log

Ident Type
Flight plan parsing failed, navigation log unavailable